Time;durP1;ratioP1;P1;durP2;ratioP2;P2;SDS_P1;SDS_P2;PMS_P1;PMS_P2;Temp;Humidity;BMP_temperature;BMP_pressure;BME280_temperature;BME280_humidity;BME280_pressure;Samples;Min_cycle;Max_cycle;Signal;HPM_P1;HPM_P2
2022/09/10 00:00:33;;;;;;;173.45;123.28;;;;;;;;;;4998098;28;20189;-73
2022/09/10 00:03:00;;;;;;;204.70;132.90;;;;;;;;;;4997757;28;20200;-73
2022/09/10 00:05:26;;;;;;;246.00;144.60;;;;;;;;;;4998718;28;20394;-74
2022/09/10 00:07:53;;;;;;;216.63;134.88;;;;;;;;;;5003017;28;20204;-73
2022/09/10 00:10:19;;;;;;;208.23;130.52;;;;;;;;;;5003649;28;20181;-74
2022/09/10 00:12:47;;;;;;;154.18;114.78;;;;;;;;;;4999439;28;20232;-74
2022/09/10 00:15:13;;;;;;;230.18;139.35;;;;;;;;;;5006682;28;20192;-74
2022/09/10 00:17:39;;;;;;;184.60;124.93;;;;;;;;;;5004612;28;20372;-74
2022/09/10 00:20:05;;;;;;;215.43;134.93;;;;;;;;;;5001203;28;20272;-74
2022/09/10 00:22:32;;;;;;;178.52;123.53;;;;;;;;;;4995144;28;20205;-74
2022/09/10 00:24:58;;;;;;;219.27;132.88;;;;;;;;;;4998085;28;20678;-73
2022/09/10 00:27:24;;;;;;;196.68;128.13;;;;;;;;;;4994097;28;20193;-73
2022/09/10 00:29:51;;;;;;;182.48;125.03;;;;;;;;;;5000660;28;22325;-74
2022/09/10 00:32:17;;;;;;;184.38;122.65;;;;;;;;;;5003757;28;20204;-74
2022/09/10 00:34:43;;;;;;;198.27;128.33;;;;;;;;;;5001739;28;20605;-74
2022/09/10 00:37:09;;;;;;;211.10;132.17;;;;;;;;;;4999346;28;20613;-73
2022/09/10 00:39:35;;;;;;;226.20;133.93;;;;;;;;;;4998458;28;20223;-73
2022/09/10 00:42:01;;;;;;;213.60;132.25;;;;;;;;;;4996217;28;20603;-73
2022/09/10 00:44:39;;;;;;;170.27;118.20;;;;;;;;;;5002118;28;20274;-74
2022/09/10 00:47:24;;;;;;;228.95;137.60;;;;;;;;;;5013607;28;20185;-74
2022/09/10 00:49:55;;;;;;;187.45;122.90;;;;;;;;;;4993432;28;20189;-73
2022/09/10 00:52:21;;;;;;;180.55;119.90;;;;;;;;;;4994896;28;20193;-73
2022/09/10 00:54:47;;;;;;;182.95;124.20;;;;;;;;;;4994763;28;20196;-73
2022/09/10 00:57:16;;;;;;;236.23;139.50;;;;;;;;;;4993519;28;20223;-73
2022/09/10 00:59:44;;;;;;;244.90;144.55;;;;;;;;;;5009386;28;20188;-72
2022/09/10 01:02:10;;;;;;;242.32;143.52;;;;;;;;;;4996404;28;20215;-74
2022/09/10 01:04:38;;;;;;;195.77;127.30;;;;;;;;;;4991313;28;20186;-74
2022/09/10 01:07:04;;;;;;;212.73;131.60;;;;;;;;;;4997167;28;20652;-74
2022/09/10 01:09:30;;;;;;;168.07;115.80;;;;;;;;;;5003948;28;20274;-74
2022/09/10 01:12:15;;;;;;;225.82;136.32;;;;;;;;;;4994112;28;20272;-73
2022/09/10 01:15:00;;;;;;;197.48;126.80;;;;;;;;;;4997046;28;20189;-72
2022/09/10 01:17:44;;;;;;;245.43;144.00;;;;;;;;;;4993242;28;20563;-73
2022/09/10 01:20:23;;;;;;;217.00;131.40;;;;;;;;;;4992577;28;20193;-74
2022/09/10 01:22:56;;;;;;;201.15;128.98;;;;;;;;;;5000373;28;20733;-73
2022/09/10 01:25:40;;;;;;;229.73;138.00;;;;;;;;;;4993568;28;20183;-73
2022/09/10 01:28:08;;;;;;;222.47;134.07;;;;;;;;;;4995951;28;20676;-73
2022/09/10 01:30:36;;;;;;;244.03;142.43;;;;;;;;;;4995078;28;20229;-73
2022/09/10 01:33:08;;;;;;;186.20;122.37;;;;;;;;;;4993556;28;20200;-73
2022/09/10 01:35:46;;;;;;;212.93;133.00;;;;;;;;;;4992521;28;20200;-72
2022/09/10 01:38:14;;;;;;;201.30;124.35;;;;;;;;;;4995291;28;20256;-72
2022/09/10 01:40:40;;;;;;;189.75;123.25;;;;;;;;;;5001633;28;20192;-74
2022/09/10 01:43:07;;;;;;;203.82;127.40;;;;;;;;;;4994859;28;20220;-74
2022/09/10 01:45:38;;;;;;;184.17;124.43;;;;;;;;;;5001368;28;20654;-74
2022/09/10 01:48:20;;;;;;;189.48;124.07;;;;;;;;;;4994563;28;20276;-74
2022/09/10 01:51:19;;;;;;;212.73;130.00;;;;;;;;;;4993932;28;20177;-73
2022/09/10 01:53:51;;;;;;;176.53;114.30;;;;;;;;;;4952762;28;20202;-73
2022/09/10 01:56:23;;;;;;;208.70;128.18;;;;;;;;;;4997160;28;20197;-73
2022/09/10 01:58:53;;;;;;;217.27;132.57;;;;;;;;;;4992749;28;20234;-73
2022/09/10 02:01:28;;;;;;;190.90;119.13;;;;;;;;;;4992460;28;20184;-73
2022/09/10 02:03:56;;;;;;;170.90;114.95;;;;;;;;;;4993726;28;20567;-72
2022/09/10 02:06:26;;;;;;;240.63;140.05;;;;;;;;;;4997407;28;20189;-74
2022/09/10 02:08:53;;;;;;;226.82;135.35;;;;;;;;;;4993325;28;20291;-74
2022/09/10 02:11:20;;;;;;;198.25;122.30;;;;;;;;;;5005968;28;20617;-73
2022/09/10 02:13:47;;;;;;;219.65;127.65;;;;;;;;;;4996687;28;20562;-74
2022/09/10 02:16:20;;;;;;;210.27;127.47;;;;;;;;;;4999243;28;20217;-73
2022/09/10 02:18:48;;;;;;;189.38;121.65;;;;;;;;;;4993306;28;20208;-73
2022/09/10 02:21:14;;;;;;;214.77;131.23;;;;;;;;;;4993315;28;20276;-72
2022/09/10 02:23:49;;;;;;;194.95;123.95;;;;;;;;;;4990666;28;20788;-72
2022/09/10 02:26:15;;;;;;;192.05;121.35;;;;;;;;;;4995143;28;20557;-73
2022/09/10 02:28:42;;;;;;;202.63;126.35;;;;;;;;;;5000831;28;20213;-72
2022/09/10 02:31:08;;;;;;;223.68;130.15;;;;;;;;;;4994262;28;20267;-72
2022/09/10 02:33:34;;;;;;;280.80;149.67;;;;;;;;;;5006787;28;20205;-73
2022/09/10 02:36:00;;;;;;;176.40;117.03;;;;;;;;;;4991376;28;20189;-73
2022/09/10 02:38:28;;;;;;;240.07;137.23;;;;;;;;;;5032403;23;20301;-69
2022/09/10 02:40:55;;;;;;;229.35;131.93;;;;;;;;;;5022997;28;20185;-70
2022/09/10 02:43:21;;;;;;;171.55;115.43;;;;;;;;;;5019825;28;20306;-69
2022/09/10 02:45:47;;;;;;;214.20;130.50;;;;;;;;;;5019259;28;20323;-70
2022/09/10 02:48:13;;;;;;;207.55;124.28;;;;;;;;;;5010749;28;20253;-69
2022/09/10 02:50:39;;;;;;;170.83;113.70;;;;;;;;;;5015280;28;20177;-70
2022/09/10 02:53:05;;;;;;;222.00;127.20;;;;;;;;;;5010765;28;20203;-69
2022/09/10 02:55:31;;;;;;;225.67;132.33;;;;;;;;;;5028806;28;20246;-69
2022/09/10 02:57:57;;;;;;;239.40;133.05;;;;;;;;;;5011945;28;20201;-72
2022/09/10 03:00:24;;;;;;;202.07;120.30;;;;;;;;;;5012902;28;20805;-69
2022/09/10 03:02:49;;;;;;;207.77;123.75;;;;;;;;;;5014424;28;20217;-70
2022/09/10 03:05:16;;;;;;;224.43;128.07;;;;;;;;;;5012211;28;20223;-70
2022/09/10 03:07:42;;;;;;;182.93;115.35;;;;;;;;;;5014743;28;20212;-69
2022/09/10 03:10:08;;;;;;;183.20;117.35;;;;;;;;;;5017476;28;20684;-70
2022/09/10 03:12:35;;;;;;;193.52;120.28;;;;;;;;;;5016655;28;20696;-70
2022/09/10 03:15:01;;;;;;;176.40;112.97;;;;;;;;;;5016105;28;20192;-69
2022/09/10 03:17:27;;;;;;;195.52;119.32;;;;;;;;;;5016670;28;20180;-70
2022/09/10 03:19:52;;;;;;;216.23;128.95;;;;;;;;;;5013650;28;20196;-69
2022/09/10 03:22:18;;;;;;;216.30;126.07;;;;;;;;;;5013790;28;20238;-70
2022/09/10 03:24:46;;;;;;;189.63;118.80;;;;;;;;;;5020022;28;20237;-69
2022/09/10 03:27:15;;;;;;;181.63;117.40;;;;;;;;;;5019348;28;20192;-71
2022/09/10 03:29:41;;;;;;;207.77;126.95;;;;;;;;;;5017309;28;20219;-70
2022/09/10 03:32:07;;;;;;;204.73;125.78;;;;;;;;;;5013791;28;20180;-69
2022/09/10 03:34:33;;;;;;;163.32;111.70;;;;;;;;;;5017968;28;20188;-69
2022/09/10 03:36:59;;;;;;;179.63;116.70;;;;;;;;;;5018328;28;20191;-70
2022/09/10 03:39:24;;;;;;;184.95;119.50;;;;;;;;;;5020788;28;20254;-70
2022/09/10 03:41:50;;;;;;;251.38;142.60;;;;;;;;;;5018269;28;20657;-69
2022/09/10 03:44:16;;;;;;;193.63;121.20;;;;;;;;;;5016951;28;20292;-70
2022/09/10 03:46:44;;;;;;;194.63;123.00;;;;;;;;;;5016805;28;20212;-69
2022/09/10 03:49:10;;;;;;;170.98;112.97;;;;;;;;;;5020053;28;20263;-70
2022/09/10 03:51:36;;;;;;;200.00;124.25;;;;;;;;;;5011930;28;20177;-70
2022/09/10 03:54:02;;;;;;;206.05;125.07;;;;;;;;;;5013985;28;20185;-70
2022/09/10 03:56:28;;;;;;;227.88;132.18;;;;;;;;;;5015492;28;20188;-70
2022/09/10 03:58:54;;;;;;;187.30;117.78;;;;;;;;;;5022789;28;20211;-71
2022/09/10 04:01:20;;;;;;;254.77;143.43;;;;;;;;;;5013641;28;20188;-68
2022/09/10 04:03:46;;;;;;;199.73;124.10;;;;;;;;;;5013318;28;20250;-69
2022/09/10 04:06:12;;;;;;;219.70;129.90;;;;;;;;;;5018840;28;20790;-68
2022/09/10 04:08:39;;;;;;;174.18;115.53;;;;;;;;;;5020679;28;20772;-68
2022/09/10 04:11:05;;;;;;;206.35;125.05;;;;;;;;;;5023037;28;20192;-68
2022/09/10 04:13:32;;;;;;;200.18;121.80;;;;;;;;;;5014596;28;20192;-68
2022/09/10 04:15:59;;;;;;;231.57;131.48;;;;;;;;;;5009741;28;21115;-70
2022/09/10 04:18:26;;;;;;;195.75;121.97;;;;;;;;;;5015911;28;20196;-68
2022/09/10 04:20:52;;;;;;;200.73;125.45;;;;;;;;;;5017131;28;20180;-68
2022/09/10 04:23:18;;;;;;;174.32;115.63;;;;;;;;;;5016601;28;20209;-68
2022/09/10 04:25:45;;;;;;;193.35;124.53;;;;;;;;;;5019859;28;20685;-68
2022/09/10 04:28:11;;;;;;;210.05;128.35;;;;;;;;;;5010472;28;20718;-68
2022/09/10 04:30:37;;;;;;;232.05;134.98;;;;;;;;;;5016579;28;20254;-68
2022/09/10 04:33:03;;;;;;;174.45;114.30;;;;;;;;;;5024833;28;20204;-68
2022/09/10 04:35:29;;;;;;;277.60;158.53;;;;;;;;;;5014131;28;20277;-67
2022/09/10 04:37:55;;;;;;;196.25;121.40;;;;;;;;;;5018751;28;20220;-68
2022/09/10 04:40:20;;;;;;;210.20;126.05;;;;;;;;;;5015467;28;20220;-67
2022/09/10 04:42:46;;;;;;;222.67;133.70;;;;;;;;;;5016578;28;20649;-68
2022/09/10 04:45:12;;;;;;;211.77;124.17;;;;;;;;;;5014451;28;20195;-68
2022/09/10 04:47:38;;;;;;;206.38;124.18;;;;;;;;;;5012638;28;20210;-68
2022/09/10 04:50:05;;;;;;;214.33;127.10;;;;;;;;;;5012940;28;20184;-68
2022/09/10 04:52:31;;;;;;;195.93;121.18;;;;;;;;;;5017499;28;20188;-68
2022/09/10 04:54:58;;;;;;;233.13;136.23;;;;;;;;;;5015104;28;20180;-68
2022/09/10 04:57:24;;;;;;;227.40;131.53;;;;;;;;;;5012876;28;20191;-68
2022/09/10 04:59:51;;;;;;;161.00;111.63;;;;;;;;;;5015533;28;20212;-68
2022/09/10 05:02:17;;;;;;;178.83;114.00;;;;;;;;;;5021263;28;20278;-67
2022/09/10 05:04:43;;;;;;;212.32;128.45;;;;;;;;;;5016749;28;20180;-67
2022/09/10 05:07:09;;;;;;;236.93;137.07;;;;;;;;;;5014311;28;22239;-68
2022/09/10 05:09:35;;;;;;;224.70;135.30;;;;;;;;;;5012339;28;20209;-68
2022/09/10 05:12:01;;;;;;;191.37;122.33;;;;;;;;;;5012913;28;20181;-69
2022/09/10 05:14:28;;;;;;;210.40;131.20;;;;;;;;;;5011587;28;20196;-68
2022/09/10 05:16:54;;;;;;;234.50;135.68;;;;;;;;;;5012843;28;20719;-68
2022/09/10 05:19:20;;;;;;;218.10;127.20;;;;;;;;;;5012818;28;20231;-68
2022/09/10 05:21:50;;;;;;;206.33;127.53;;;;;;;;;;5012479;28;20327;-68
2022/09/10 05:24:16;;;;;;;218.30;130.60;;;;;;;;;;5010093;28;20216;-68
2022/09/10 05:26:42;;;;;;;215.32;132.18;;;;;;;;;;5011399;28;20176;-68
2022/09/10 05:29:10;;;;;;;181.47;118.37;;;;;;;;;;5013273;28;20674;-67
2022/09/10 05:31:36;;;;;;;184.20;120.23;;;;;;;;;;5016255;28;20267;-67
2022/09/10 05:34:02;;;;;;;209.05;128.25;;;;;;;;;;5012681;28;20268;-68
2022/09/10 05:36:28;;;;;;;198.35;121.63;;;;;;;;;;5012490;28;20709;-68
2022/09/10 05:38:54;;;;;;;165.70;114.30;;;;;;;;;;5016169;28;20219;-68
2022/09/10 05:41:20;;;;;;;207.38;127.18;;;;;;;;;;5014499;28;20732;-71
2022/09/10 05:43:47;;;;;;;226.85;137.38;;;;;;;;;;5014074;28;20259;-69
2022/09/10 05:46:13;;;;;;;189.63;122.20;;;;;;;;;;5015862;28;20178;-69
2022/09/10 05:48:39;;;;;;;193.90;125.60;;;;;;;;;;5015386;28;20979;-69
2022/09/10 05:51:06;;;;;;;191.00;123.30;;;;;;;;;;5018393;28;20176;-68
2022/09/10 05:53:32;;;;;;;217.93;128.37;;;;;;;;;;5015298;28;20188;-69
2022/09/10 05:55:58;;;;;;;216.17;132.23;;;;;;;;;;5009111;28;20183;-65
2022/09/10 05:58:24;;;;;;;248.65;146.63;;;;;;;;;;4997443;28;20227;-65
2022/09/10 06:00:50;;;;;;;231.65;138.15;;;;;;;;;;5006354;28;20235;-65
2022/09/10 06:03:16;;;;;;;219.85;131.57;;;;;;;;;;5020398;28;20323;-66
2022/09/10 06:05:52;;;;;;;313.10;169.63;;;;;;;;;;5012511;28;20781;-65
2022/09/10 06:08:20;;;;;;;179.32;123.10;;;;;;;;;;5007828;28;20703;-65
2022/09/10 06:10:59;;;;;;;185.00;122.43;;;;;;;;;;5018167;28;20894;-65
2022/09/10 06:13:26;;;;;;;226.70;135.23;;;;;;;;;;5015579;28;20185;-65
2022/09/10 06:15:52;;;;;;;192.10;126.22;;;;;;;;;;5023442;28;20184;-65
2022/09/10 06:18:18;;;;;;;238.52;141.02;;;;;;;;;;5014968;28;20219;-65
2022/09/10 06:20:46;;;;;;;212.57;133.63;;;;;;;;;;5018309;28;20187;-65
2022/09/10 06:23:13;;;;;;;241.50;141.40;;;;;;;;;;5007384;28;21602;-65
2022/09/10 06:25:39;;;;;;;306.20;165.75;;;;;;;;;;5017527;28;20187;-65
2022/09/10 06:28:05;;;;;;;179.63;118.65;;;;;;;;;;5016664;28;20558;-65
2022/09/10 06:30:31;;;;;;;248.18;140.93;;;;;;;;;;5019088;28;20184;-65
2022/09/10 06:32:57;;;;;;;215.77;133.18;;;;;;;;;;5015643;28;20692;-65
2022/09/10 06:35:24;;;;;;;251.00;147.20;;;;;;;;;;5009094;28;20180;-65
2022/09/10 06:37:50;;;;;;;285.67;161.88;;;;;;;;;;5009479;28;20228;-65
2022/09/10 06:40:17;;;;;;;207.50;132.02;;;;;;;;;;5017121;28;20188;-65
2022/09/10 06:42:43;;;;;;;197.60;125.85;;;;;;;;;;5019598;28;20295;-65
2022/09/10 06:45:09;;;;;;;222.70;131.25;;;;;;;;;;5016638;28;20390;-65
2022/09/10 06:47:36;;;;;;;174.70;118.57;;;;;;;;;;5013907;28;20253;-65
2022/09/10 06:50:01;;;;;;;235.50;143.10;;;;;;;;;;5015669;28;20203;-65
2022/09/10 06:52:28;;;;;;;227.63;139.55;;;;;;;;;;5015548;28;20653;-65
2022/09/10 06:54:55;;;;;;;203.88;131.98;;;;;;;;;;5023708;28;20562;-65
2022/09/10 06:57:24;;;;;;;200.73;126.55;;;;;;;;;;5016324;28;20180;-66
2022/09/10 06:59:50;;;;;;;244.75;147.32;;;;;;;;;;5016534;28;20673;-64
2022/09/10 07:02:16;;;;;;;275.73;161.68;;;;;;;;;;5024137;28;20184;-70
2022/09/10 07:04:42;;;;;;;221.13;139.55;;;;;;;;;;5022677;28;20232;-68
2022/09/10 07:07:08;;;;;;;333.17;184.35;;;;;;;;;;5017733;28;20325;-67
2022/09/10 07:09:34;;;;;;;195.10;130.23;;;;;;;;;;5019667;28;20208;-68
2022/09/10 07:12:01;;;;;;;229.73;138.43;;;;;;;;;;5022908;28;20176;-70
2022/09/10 07:14:27;;;;;;;201.60;133.48;;;;;;;;;;5019686;28;20202;-68
2022/09/10 07:16:54;;;;;;;268.70;157.20;;;;;;;;;;5020128;28;20172;-67
2022/09/10 07:19:20;;;;;;;327.08;173.45;;;;;;;;;;5007928;28;20586;-67
2022/09/10 07:21:46;;;;;;;234.07;142.40;;;;;;;;;;5016928;28;20188;-66
2022/09/10 07:24:13;;;;;;;255.93;158.77;;;;;;;;;;5018102;28;20665;-69
2022/09/10 07:26:39;;;;;;;192.40;133.32;;;;;;;;;;5022090;28;20180;-68
2022/09/10 07:29:05;;;;;;;277.25;161.50;;;;;;;;;;5014195;28;20339;-67
2022/09/10 07:31:37;;;;;;;252.88;150.45;;;;;;;;;;5015083;28;20185;-71
2022/09/10 07:34:03;;;;;;;365.55;193.23;;;;;;;;;;5021822;28;20232;-70
2022/09/10 07:36:30;;;;;;;283.85;160.00;;;;;;;;;;5010847;28;20682;-71
2022/09/10 07:38:56;;;;;;;272.33;156.43;;;;;;;;;;5016916;28;20420;-70
2022/09/10 07:41:23;;;;;;;248.70;148.10;;;;;;;;;;5011531;28;20585;-75
2022/09/10 07:43:52;;;;;;;381.45;198.88;;;;;;;;;;5003301;28;20331;-66
2022/09/10 07:46:19;;;;;;;268.25;153.73;;;;;;;;;;5008814;28;20188;-64
2022/09/10 07:48:47;;;;;;;263.58;146.90;;;;;;;;;;5016395;28;20200;-64
2022/09/10 07:51:16;;;;;;;253.18;147.98;;;;;;;;;;5017983;28;20173;-64
2022/09/10 07:53:42;;;;;;;271.65;151.48;;;;;;;;;;5014121;28;20192;-64
2022/09/10 07:56:09;;;;;;;254.00;143.82;;;;;;;;;;5017602;28;20180;-65
2022/09/10 07:58:37;;;;;;;246.57;143.13;;;;;;;;;;5016424;28;20713;-65
2022/09/10 08:01:06;;;;;;;254.18;145.00;;;;;;;;;;5017160;28;20215;-64
2022/09/10 08:03:32;;;;;;;259.52;145.73;;;;;;;;;;5015806;28;20208;-65
2022/09/10 08:06:02;;;;;;;230.40;139.23;;;;;;;;;;5018263;28;20238;-65
2022/09/10 08:08:32;;;;;;;246.60;145.38;;;;;;;;;;5023410;28;20785;-64
2022/09/10 08:11:12;;;;;;;261.40;148.93;;;;;;;;;;5012914;28;20259;-64
2022/09/10 08:13:44;;;;;;;248.75;142.77;;;;;;;;;;5014939;28;20242;-65
2022/09/10 08:16:11;;;;;;;253.82;146.48;;;;;;;;;;5017271;28;20849;-65
2022/09/10 08:18:37;;;;;;;224.38;140.52;;;;;;;;;;5015487;28;20570;-65
2022/09/10 08:21:03;;;;;;;258.30;152.05;;;;;;;;;;5012309;28;20192;-65
2022/09/10 08:23:30;;;;;;;249.85;147.82;;;;;;;;;;5017902;28;20265;-65
2022/09/10 08:25:57;;;;;;;336.13;182.05;;;;;;;;;;5014529;28;20821;-65
2022/09/10 08:28:22;;;;;;;275.52;164.95;;;;;;;;;;5018324;28;20640;-64
2022/09/10 08:30:56;;;;;;;242.98;146.43;;;;;;;;;;5020649;28;20180;-65
2022/09/10 08:33:22;;;;;;;281.77;171.93;;;;;;;;;;5015910;28;20173;-65
2022/09/10 08:35:56;;;;;;;281.40;163.93;;;;;;;;;;5015891;28;20185;-70
2022/09/10 08:40:51;;;;;;;245.88;151.88;;;;;;;;;;4970239;28;20579;-53
2022/09/10 08:43:18;;;;;;;269.30;159.02;;;;;;;;;;4976006;28;20210;-53
2022/09/10 08:45:47;;;;;;;283.98;166.57;;;;;;;;;;4955339;28;20189;-53
2022/09/10 08:48:17;;;;;;;263.42;160.43;;;;;;;;;;4953798;28;20193;-53
2022/09/10 08:50:46;;;;;;;266.73;172.00;;;;;;;;;;4954625;28;20210;-53
2022/09/10 08:53:30;;;;;;;343.83;190.55;;;;;;;;;;4950939;28;20289;-53
2022/09/10 08:56:00;;;;;;;264.92;160.77;;;;;;;;;;4953311;28;20206;-53
2022/09/10 08:58:28;;;;;;;257.50;158.57;;;;;;;;;;4955761;28;20646;-53
2022/09/10 09:00:58;;;;;;;265.10;157.90;;;;;;;;;;4955363;28;20698;-53
2022/09/10 09:03:23;;;;;;;377.23;212.75;;;;;;;;;;4954977;28;20804;-53
2022/09/10 09:05:52;;;;;;;278.83;171.63;;;;;;;;;;4950959;28;20350;-53
2022/09/10 09:08:20;;;;;;;298.52;183.00;;;;;;;;;;4958488;28;20186;-53
2022/09/10 09:10:52;;;;;;;284.17;181.90;;;;;;;;;;4955995;28;20189;-53
2022/09/10 09:13:36;;;;;;;280.27;164.52;;;;;;;;;;4954463;28;20195;-52
2022/09/10 09:16:11;;;;;;;279.25;168.27;;;;;;;;;;4955086;28;20263;-53
2022/09/10 09:18:53;;;;;;;287.00;184.40;;;;;;;;;;4948480;28;20194;-53
2022/09/10 09:21:35;;;;;;;294.15;177.63;;;;;;;;;;4954454;28;20190;-53
2022/09/10 09:24:04;;;;;;;307.02;181.20;;;;;;;;;;4949311;28;20244;-53
2022/09/10 09:26:34;;;;;;;312.73;190.02;;;;;;;;;;4946791;28;20202;-53
2022/09/10 09:29:18;;;;;;;292.27;180.25;;;;;;;;;;4951769;28;20191;-53
2022/09/10 09:31:49;;;;;;;383.73;216.95;;;;;;;;;;4944282;28;20270;-53
2022/09/10 09:34:18;;;;;;;297.15;184.55;;;;;;;;;;4949411;28;20206;-53
2022/09/10 09:36:48;;;;;;;316.60;193.45;;;;;;;;;;4950316;28;20189;-52
2022/09/10 09:39:17;;;;;;;287.05;182.10;;;;;;;;;;4955924;28;20202;-53
2022/09/10 09:41:58;;;;;;;282.90;175.35;;;;;;;;;;4953937;28;20282;-53
2022/09/10 09:44:30;;;;;;;281.65;180.85;;;;;;;;;;4957649;28;20214;-53
2022/09/10 09:46:56;;;;;;;286.98;185.07;;;;;;;;;;4955642;28;20187;-53
2022/09/10 09:49:24;;;;;;;316.13;199.80;;;;;;;;;;4957893;28;20182;-52
2022/09/10 09:51:50;;;;;;;321.55;187.95;;;;;;;;;;4945551;28;20273;-52
2022/09/10 09:54:21;;;;;;;321.48;190.98;;;;;;;;;;4948070;28;20293;-52
2022/09/10 09:56:53;;;;;;;291.40;182.77;;;;;;;;;;4952393;28;21240;-52
2022/09/10 09:59:33;;;;;;;295.20;186.00;;;;;;;;;;4950735;28;20229;-52
2022/09/10 10:02:11;;;;;;;308.48;192.15;;;;;;;;;;4947548;28;20186;-52
2022/09/10 10:04:37;;;;;;;342.13;209.25;;;;;;;;;;4943422;28;20547;-53
2022/09/10 10:07:03;;;;;;;338.92;207.02;;;;;;;;;;4942581;28;20587;-53
2022/09/10 10:09:30;;;;;;;328.00;198.32;;;;;;;;;;4947924;28;20187;-53
2022/09/10 10:11:58;;;;;;;323.58;191.82;;;;;;;;;;4954091;28;20642;-53
2022/09/10 10:14:26;;;;;;;289.15;186.85;;;;;;;;;;4945950;28;20202;-53
2022/09/10 10:16:54;;;;;;;324.85;197.38;;;;;;;;;;4946095;28;20210;-53
2022/09/10 10:19:33;;;;;;;330.73;191.50;;;;;;;;;;4961529;28;20190;-53
2022/09/10 10:22:19;;;;;;;289.92;194.10;;;;;;;;;;4952285;28;20190;-53
2022/09/10 10:24:46;;;;;;;260.73;178.98;;;;;;;;;;4954106;28;20221;-53
2022/09/10 10:27:21;;;;;;;326.73;205.20;;;;;;;;;;4950184;28;20225;-53
2022/09/10 10:30:10;;;;;;;326.85;202.68;;;;;;;;;;4951619;28;20184;-53
2022/09/10 10:32:42;;;;;;;314.15;202.07;;;;;;;;;;4943972;28;20276;-53
2022/09/10 10:35:08;;;;;;;302.80;193.95;;;;;;;;;;4949738;28;20201;-53
2022/09/10 10:37:46;;;;;;;300.35;193.77;;;;;;;;;;4943397;28;20242;-53
2022/09/10 10:40:16;;;;;;;368.88;219.27;;;;;;;;;;4946994;28;20210;-53
2022/09/10 10:43:01;;;;;;;336.17;208.80;;;;;;;;;;4946538;28;20533;-53
2022/09/10 10:45:27;;;;;;;274.38;195.55;;;;;;;;;;4955845;28;20198;-53
2022/09/10 10:47:56;;;;;;;265.83;190.93;;;;;;;;;;4958002;28;20684;-53
2022/09/10 10:50:27;;;;;;;357.45;224.90;;;;;;;;;;4949009;28;20225;-53
2022/09/10 10:52:56;;;;;;;348.23;222.35;;;;;;;;;;4954719;28;20642;-53
2022/09/10 10:55:35;;;;;;;339.02;213.45;;;;;;;;;;4943662;28;20218;-53
2022/09/10 10:58:04;;;;;;;299.85;202.60;;;;;;;;;;4954174;28;20662;-53
2022/09/10 11:00:35;;;;;;;315.55;215.55;;;;;;;;;;4955442;28;20205;-53
2022/09/10 11:03:01;;;;;;;318.10;220.35;;;;;;;;;;4952336;28;20203;-53
2022/09/10 11:05:33;;;;;;;297.10;210.13;;;;;;;;;;4955813;28;20210;-53
2022/09/10 11:08:00;;;;;;;313.10;221.73;;;;;;;;;;4956997;28;20183;-53
2022/09/10 11:10:32;;;;;;;293.15;211.23;;;;;;;;;;4957924;28;20193;-53
2022/09/10 11:13:15;;;;;;;318.05;223.02;;;;;;;;;;4948138;28;20555;-53
2022/09/10 11:15:41;;;;;;;373.35;248.45;;;;;;;;;;4948813;28;20210;-53
2022/09/10 11:18:25;;;;;;;312.45;217.48;;;;;;;;;;4954193;28;20215;-53
2022/09/10 11:21:03;;;;;;;310.40;226.48;;;;;;;;;;4955494;28;20253;-53
2022/09/10 11:23:47;;;;;;;323.20;223.15;;;;;;;;;;4963420;28;20209;-53
2022/09/10 11:26:32;;;;;;;325.45;221.35;;;;;;;;;;4956558;28;20658;-53
2022/09/10 11:29:17;;;;;;;332.38;220.68;;;;;;;;;;4955620;28;20183;-53
2022/09/10 11:31:45;;;;;;;314.55;210.23;;;;;;;;;;4955924;28;20187;-53
2022/09/10 11:34:23;;;;;;;399.83;244.20;;;;;;;;;;4940059;28;20199;-53
2022/09/10 11:36:52;;;;;;;315.70;211.88;;;;;;;;;;4954734;28;20244;-53
2022/09/10 11:39:28;;;;;;;313.48;224.93;;;;;;;;;;4959882;28;20202;-53
2022/09/10 11:41:57;;;;;;;288.48;201.45;;;;;;;;;;4959342;28;20705;-53
2022/09/10 11:44:43;;;;;;;352.77;230.55;;;;;;;;;;4954320;28;20301;-53
2022/09/10 11:47:13;;;;;;;354.85;241.88;;;;;;;;;;4954772;28;20198;-53
2022/09/10 11:49:43;;;;;;;358.33;236.35;;;;;;;;;;4960711;28;20179;-53
2022/09/10 11:52:10;;;;;;;337.85;230.25;;;;;;;;;;4951713;28;20207;-53
2022/09/10 11:54:37;;;;;;;336.10;233.98;;;;;;;;;;4957563;28;20221;-53
2022/09/10 11:57:10;;;;;;;336.85;232.05;;;;;;;;;;4952392;28;20329;-53
2022/09/10 11:59:53;;;;;;;350.15;236.60;;;;;;;;;;4961533;28;20194;-53
2022/09/10 12:02:43;;;;;;;387.25;254.20;;;;;;;;;;4952085;28;20202;-53
2022/09/10 12:05:29;;;;;;;399.25;264.17;;;;;;;;;;4955937;28;20357;-53
2022/09/10 12:08:02;;;;;;;356.05;252.82;;;;;;;;;;4951330;28;20182;-53
2022/09/10 12:10:33;;;;;;;364.25;265.95;;;;;;;;;;4956527;28;20694;-53
2022/09/10 12:13:00;;;;;;;391.15;273.63;;;;;;;;;;4952877;28;20664;-53
2022/09/10 12:15:29;;;;;;;365.42;263.15;;;;;;;;;;4961404;28;20618;-53
2022/09/10 12:17:59;;;;;;;375.10;269.17;;;;;;;;;;4947567;28;20186;-53
2022/09/10 12:20:28;;;;;;;401.90;283.27;;;;;;;;;;4943905;28;20254;-53
2022/09/10 12:22:54;;;;;;;402.77;277.65;;;;;;;;;;4951069;28;20218;-53
2022/09/10 12:25:20;;;;;;;351.38;259.40;;;;;;;;;;4957409;28;20431;-53
2022/09/10 12:27:48;;;;;;;418.75;273.38;;;;;;;;;;4954098;28;20528;-53
2022/09/10 12:30:27;;;;;;;405.08;267.52;;;;;;;;;;4940254;28;20178;-53
2022/09/10 12:32:54;;;;;;;393.75;263.48;;;;;;;;;;4945416;28;20189;-53
2022/09/10 12:35:30;;;;;;;378.63;259.05;;;;;;;;;;4951044;28;20297;-53
2022/09/10 12:38:14;;;;;;;404.25;279.13;;;;;;;;;;4956124;28;20185;-53
2022/09/10 12:40:48;;;;;;;356.23;245.45;;;;;;;;;;4948271;28;20450;-53
2022/09/10 12:43:43;;;;;;;405.73;274.98;;;;;;;;;;4948637;28;20531;-53
2022/09/10 12:46:08;;;;;;;371.33;260.25;;;;;;;;;;4957558;28;20426;-53
2022/09/10 12:48:35;;;;;;;458.23;291.40;;;;;;;;;;4951044;28;20465;-53
2022/09/10 12:51:09;;;;;;;374.52;254.73;;;;;;;;;;4953544;28;20183;-53
2022/09/10 12:53:43;;;;;;;351.10;243.32;;;;;;;;;;4942800;28;20214;-53
2022/09/10 12:56:27;;;;;;;365.25;243.93;;;;;;;;;;4949946;28;20285;-53
2022/09/10 12:59:13;;;;;;;345.58;242.57;;;;;;;;;;4944984;28;20421;-53
2022/09/10 13:01:45;;;;;;;321.23;224.23;;;;;;;;;;4954656;28;20281;-53
2022/09/10 13:04:33;;;;;;;423.25;256.33;;;;;;;;;;4952765;28;20214;-53
2022/09/10 13:07:01;;;;;;;387.95;249.68;;;;;;;;;;4948361;28;20191;-53
2022/09/10 13:09:36;;;;;;;408.77;276.00;;;;;;;;;;4947490;28;20241;-53
2022/09/10 13:12:04;;;;;;;366.48;258.45;;;;;;;;;;4951699;28;20185;-53
2022/09/10 13:14:34;;;;;;;410.63;265.08;;;;;;;;;;4950729;28;20854;-53
2022/09/10 13:17:00;;;;;;;369.42;256.85;;;;;;;;;;4950137;28;20190;-53
2022/09/10 13:19:26;;;;;;;396.48;259.02;;;;;;;;;;4945312;28;20205;-53
2022/09/10 13:21:53;;;;;;;399.45;258.60;;;;;;;;;;4943964;28;20297;-53
2022/09/10 13:24:36;;;;;;;418.77;270.55;;;;;;;;;;4945992;28;20724;-53
2022/09/10 13:27:33;;;;;;;397.23;272.70;;;;;;;;;;4946977;28;20178;-53
2022/09/10 13:30:16;;;;;;;378.83;274.73;;;;;;;;;;4955142;28;20187;-53
2022/09/10 13:33:02;;;;;;;408.52;285.20;;;;;;;;;;4948566;28;20189;-53
2022/09/10 13:35:46;;;;;;;411.02;285.05;;;;;;;;;;4947486;28;20306;-53
2022/09/10 13:38:15;;;;;;;431.20;296.20;;;;;;;;;;4953244;28;20197;-53
2022/09/10 13:40:57;;;;;;;407.02;291.50;;;;;;;;;;4951881;28;20194;-53
2022/09/10 13:43:47;;;;;;;417.77;295.00;;;;;;;;;;4946512;28;20214;-53
2022/09/10 13:46:21;;;;;;;411.13;293.85;;;;;;;;;;4948412;28;20186;-53
2022/09/10 13:48:52;;;;;;;504.15;340.17;;;;;;;;;;4945643;28;20193;-53
2022/09/10 13:51:30;;;;;;;410.70;311.60;;;;;;;;;;4945421;28;20270;-53
2022/09/10 13:54:00;;;;;;;478.92;341.85;;;;;;;;;;4945824;28;20218;-53
2022/09/10 13:56:28;;;;;;;383.00;296.75;;;;;;;;;;4946475;28;20889;-53
2022/09/10 13:58:59;;;;;;;453.15;332.80;;;;;;;;;;4948841;28;20186;-53
2022/09/10 14:01:44;;;;;;;436.00;333.42;;;;;;;;;;4948461;28;20202;-54
2022/09/10 14:04:28;;;;;;;466.23;347.77;;;;;;;;;;4954385;28;20214;-54
2022/09/10 14:07:01;;;;;;;406.58;334.33;;;;;;;;;;4950041;28;20184;-53
2022/09/10 14:09:27;;;;;;;419.00;345.83;;;;;;;;;;4951850;28;20273;-54